createdAt,value
2018-04-15T00:00:34.837Z,32.20
2018-04-15T00:01:34.835Z,28.40
2018-04-15T00:02:34.830Z,29.70
2018-04-15T00:03:34.834Z,30.00
2018-04-15T00:04:35.032Z,29.70
2018-04-15T00:05:34.831Z,32.10
2018-04-15T00:06:34.826Z,27.10
2018-04-15T00:07:35.037Z,28.70
2018-04-15T00:08:34.822Z,30.60
2018-04-15T00:09:35.036Z,28.60
2018-04-15T00:10:35.026Z,27.90
2018-04-15T00:11:35.022Z,28.90
2018-04-15T00:12:34.818Z,26.80
2018-04-15T00:13:34.828Z,28.90
2018-04-15T00:14:34.824Z,29.20
2018-04-15T00:15:35.014Z,25.80
2018-04-15T00:16:34.813Z,23.70
2018-04-15T00:17:34.808Z,26.50
2018-04-15T00:18:35.009Z,24.60
2018-04-15T00:19:35.009Z,26.20
2018-04-15T00:20:35.017Z,24.60
2018-04-15T00:21:34.801Z,23.70
2018-04-15T00:22:34.812Z,25.40
2018-04-15T00:23:34.811Z,23.90
2018-04-15T00:24:34.800Z,23.90
2018-04-15T00:25:35.000Z,25.10
2018-04-15T00:26:34.804Z,27.00
2018-04-15T00:27:34.793Z,25.20
2018-04-15T00:28:34.997Z,24.50
2018-04-15T00:29:34.793Z,24.20
2018-04-15T00:30:34.800Z,23.80
2018-04-15T00:31:34.990Z,23.40
2018-04-15T00:32:34.989Z,22.50
2018-04-15T00:33:34.784Z,22.50
2018-04-15T00:34:34.987Z,20.40
2018-04-15T00:35:34.999Z,21.70
2018-04-15T00:36:34.779Z,23.00
2018-04-15T00:37:34.778Z,21.40
2018-04-15T00:38:34.777Z,23.30
2018-04-15T00:39:34.976Z,22.00
2018-04-15T00:40:34.772Z,23.30
2018-04-15T00:41:34.973Z,21.20
2018-04-15T00:42:34.770Z,21.90
2018-04-15T00:43:34.765Z,21.00
2018-04-15T00:44:34.981Z,23.50
2018-04-15T00:45:34.765Z,22.10
2018-04-15T00:46:34.760Z,22.00
2018-04-15T00:47:34.758Z,20.30
2018-04-15T00:48:34.757Z,20.90
2018-04-15T00:49:34.959Z,20.50
2018-04-15T00:50:34.968Z,22.10
2018-04-15T00:51:34.759Z,20.70
2018-04-15T00:52:34.759Z,24.30
2018-04-15T00:53:34.752Z,21.30
2018-04-15T00:54:34.952Z,21.80
2018-04-15T00:55:34.953Z,22.40
2018-04-15T00:56:34.764Z,23.20
2018-04-15T00:57:34.746Z,22.10
2018-04-15T00:58:34.742Z,23.10
2018-04-15T00:59:34.737Z,23.20
2018-04-15T01:00:34.737Z,21.70
2018-04-15T01:01:34.953Z,22.00
2018-04-15T01:02:34.940Z,23.20
2018-04-15T01:03:34.733Z,23.60
2018-04-15T01:04:34.747Z,22.10
2018-04-15T01:05:34.735Z,21.70
2018-04-15T01:06:34.732Z,22.80
2018-04-15T01:07:34.743Z,23.90
2018-04-15T01:08:34.740Z,24.20
2018-04-15T01:09:34.935Z,24.00
2018-04-15T01:10:34.726Z,24.60
2018-04-15T01:11:34.721Z,25.00
2018-04-15T01:12:34.721Z,25.30
2018-04-15T01:13:34.720Z,24.70
2018-04-15T01:14:34.720Z,26.20
2018-04-15T01:15:34.719Z,24.70
2018-04-15T01:16:34.718Z,25.60
2018-04-15T01:17:34.730Z,24.90
2018-04-15T01:18:34.714Z,26.20
2018-04-15T01:19:34.724Z,26.90
2018-04-15T01:20:34.709Z,25.30
2018-04-15T01:21:34.706Z,27.70
2018-04-15T01:22:34.707Z,26.00
2018-04-15T01:23:34.711Z,27.80
2018-04-15T01:24:34.706Z,27.90
2018-04-15T01:25:34.907Z,28.10
2018-04-15T01:26:34.699Z,27.30
2018-04-15T01:27:34.916Z,32.40
2018-04-15T01:28:34.709Z,27.80
2018-04-15T01:29:34.695Z,30.30
2018-04-15T01:30:34.693Z,33.00
2018-04-15T01:31:34.695Z,30.10
2018-04-15T01:32:34.898Z,33.20
2018-04-15T01:33:34.697Z,34.30
2018-04-15T01:34:34.688Z,33.20
2018-04-15T01:35:34.697Z,35.10
2018-04-15T01:36:34.690Z,30.60
2018-04-15T01:37:34.700Z,32.50
2018-04-15T01:38:34.686Z,36.80
2018-04-15T01:39:34.897Z,34.50
2018-04-15T01:40:34.681Z,34.30
2018-04-15T01:41:34.730Z,31.50
2018-04-15T01:42:34.677Z,36.50
2018-04-15T01:43:34.690Z,34.10
2018-04-15T01:44:34.688Z,32.60
2018-04-15T01:45:34.676Z,33.60
2018-04-15T01:46:34.684Z,36.50
2018-04-15T01:47:34.877Z,34.20
2018-04-15T01:48:34.690Z,35.20
2018-04-15T01:49:34.673Z,34.00
2018-04-15T01:50:34.667Z,33.80
2018-04-15T01:51:34.676Z,34.10
2018-04-15T01:52:34.869Z,35.60
2018-04-15T01:53:34.679Z,34.60
2018-04-15T01:54:34.661Z,37.10
2018-04-15T01:55:34.660Z,38.60
2018-04-15T01:56:34.673Z,38.30
2018-04-15T01:57:34.882Z,41.20
2018-04-15T01:58:34.674Z,37.60
2018-04-15T01:59:34.675Z,39.10
2018-04-15T02:00:34.659Z,39.60
2018-04-15T02:01:34.654Z,44.00
2018-04-15T02:02:34.652Z,40.30
2018-04-15T02:03:34.664Z,45.70
2018-04-15T02:04:34.666Z,50.80
2018-04-15T02:05:35.917Z,52.20
2018-04-15T02:06:34.650Z,54.40
2018-04-15T02:07:34.645Z,58.20
2018-04-15T02:08:34.645Z,62.90
2018-04-15T02:09:34.653Z,63.30
2018-04-15T02:10:34.644Z,60.40
2018-04-15T02:11:34.643Z,67.10
2018-04-15T02:12:34.644Z,67.20
2018-04-15T02:13:34.658Z,67.60
2018-04-15T02:14:34.841Z,67.10
2018-04-15T02:15:34.638Z,68.10
2018-04-15T02:16:34.641Z,66.40
2018-04-15T02:17:34.838Z,70.90
2018-04-15T02:18:34.635Z,71.20
2018-04-15T02:19:34.635Z,75.40
2018-04-15T02:20:34.635Z,76.80
2018-04-15T02:21:34.635Z,74.60
2018-04-15T02:22:34.630Z,81.10
2018-04-15T02:23:34.832Z,80.00
2018-04-15T02:24:34.627Z,82.80
2018-04-15T02:25:34.839Z,79.80
2018-04-15T02:26:34.624Z,75.30
2018-04-15T02:27:34.668Z,79.90
2018-04-15T02:28:34.641Z,80.50
2018-04-15T02:29:34.630Z,79.40
2018-04-15T02:30:34.833Z,74.10
2018-04-15T02:31:34.629Z,73.70
2018-04-15T02:32:34.820Z,80.90
2018-04-15T02:33:34.617Z,74.80
2018-04-15T02:34:34.624Z,78.00
2018-04-15T02:35:34.619Z,82.00
2018-04-15T02:36:34.618Z,78.10
2018-04-15T02:37:34.618Z,74.80
2018-04-15T02:38:34.612Z,71.00
2018-04-15T02:39:34.615Z,71.70
2018-04-15T02:40:34.612Z,74.60
2018-04-15T02:41:34.599Z,71.60
2018-04-15T02:42:34.601Z,71.20
2018-04-15T02:43:34.599Z,65.40
2018-04-15T02:44:34.597Z,71.00
2018-04-15T02:45:34.594Z,73.10
2018-04-15T02:46:34.596Z,71.30
2018-04-15T02:47:34.599Z,67.50
2018-04-15T02:48:34.598Z,67.10
2018-04-15T02:49:34.793Z,63.40
2018-04-15T02:50:34.600Z,65.60
2018-04-15T02:51:34.608Z,70.20
2018-04-15T02:52:34.595Z,64.50
2018-04-15T02:53:34.787Z,65.30
2018-04-15T02:54:34.598Z,66.00
2018-04-15T02:55:34.601Z,68.70
2018-04-15T02:56:34.593Z,75.80
2018-04-15T02:57:34.577Z,75.20
2018-04-15T02:58:34.615Z,67.20
2018-04-15T02:59:34.786Z,77.10
2018-04-15T03:00:34.582Z,71.60
2018-04-15T03:01:34.589Z,72.50
2018-04-15T03:02:34.775Z,71.00
2018-04-15T03:03:34.783Z,63.30
2018-04-15T03:04:34.573Z,68.90
2018-04-15T03:05:34.575Z,67.70
2018-04-15T03:06:34.577Z,72.00
2018-04-15T03:07:34.575Z,71.60
2018-04-15T03:08:34.572Z,67.80
2018-04-15T03:09:34.558Z,72.20
2018-04-15T03:10:34.557Z,71.00
2018-04-15T03:11:34.560Z,73.10
2018-04-15T03:12:34.761Z,74.00
2018-04-15T03:13:34.567Z,81.20
2018-04-15T03:14:34.558Z,83.60
2018-04-15T03:15:34.557Z,93.90
2018-04-15T03:16:34.548Z,82.00
2018-04-15T03:17:34.547Z,87.30
2018-04-15T03:18:34.548Z,89.20
2018-04-15T03:19:34.546Z,94.50
2018-04-15T03:20:34.546Z,93.30
2018-04-15T03:21:34.545Z,105.30
2018-04-15T03:22:34.542Z,103.80
2018-04-15T03:23:34.551Z,104.50
2018-04-15T03:24:34.536Z,97.60
2018-04-15T03:25:34.537Z,100.10
2018-04-15T03:26:34.560Z,113.20
2018-04-15T03:27:34.737Z,120.70
2018-04-15T03:28:34.532Z,95.80
2018-04-15T03:29:34.737Z,113.70
2018-04-15T03:30:34.563Z,83.70
2018-04-15T03:31:34.543Z,80.30
2018-04-15T03:32:34.529Z,79.00
2018-04-15T03:33:34.523Z,76.00
2018-04-15T03:34:34.738Z,91.40
2018-04-15T03:35:34.735Z,88.30
2018-04-15T03:36:34.526Z,80.90
2018-04-15T03:37:34.520Z,80.80
2018-04-15T03:38:34.519Z,84.30
2018-04-15T03:39:34.735Z,75.30
2018-04-15T03:40:34.529Z,72.00
2018-04-15T03:41:34.729Z,74.30
2018-04-15T03:42:34.512Z,77.80
2018-04-15T03:43:34.508Z,80.50
2018-04-15T03:44:34.738Z,84.90
2018-04-15T03:45:34.523Z,77.20
2018-04-15T03:46:34.518Z,74.40
2018-04-15T03:47:34.528Z,84.30
2018-04-15T03:48:34.505Z,89.90
2018-04-15T03:49:34.503Z,81.00
2018-04-15T03:50:34.498Z,79.80
2018-04-15T03:51:34.497Z,84.40
2018-04-15T03:52:34.507Z,76.50
2018-04-15T03:53:34.497Z,68.30
2018-04-15T03:54:34.493Z,69.90
2018-04-15T03:55:34.491Z,80.80
2018-04-15T03:56:34.488Z,100.30
2018-04-15T03:57:34.696Z,70.20
2018-04-15T03:58:34.487Z,71.60
2018-04-15T03:59:34.485Z,68.10
2018-04-15T04:00:34.485Z,67.50
2018-04-15T04:01:34.687Z,73.90
2018-04-15T04:02:34.495Z,71.60
2018-04-15T04:03:34.683Z,65.10
2018-04-15T04:04:34.480Z,64.80
2018-04-15T04:05:34.482Z,62.20
2018-04-15T04:06:34.491Z,66.60
2018-04-15T04:07:34.482Z,63.30
2018-04-15T04:08:34.474Z,61.20
2018-04-15T04:09:34.686Z,63.40
2018-04-15T04:10:34.486Z,63.70
2018-04-15T04:11:34.677Z,57.00
2018-04-15T04:12:34.485Z,60.20
2018-04-15T04:13:34.466Z,56.20
2018-04-15T04:14:34.465Z,56.70
2018-04-15T04:15:34.475Z,58.50
2018-04-15T04:16:34.464Z,54.10
2018-04-15T04:17:34.461Z,51.00
2018-04-15T04:18:34.668Z,53.20
2018-04-15T04:19:34.662Z,50.50
2018-04-15T04:20:34.461Z,51.00
2018-04-15T04:21:34.467Z,50.50
2018-04-15T04:22:34.473Z,46.80
2018-04-15T04:23:34.457Z,43.60
2018-04-15T04:24:34.465Z,43.10
2018-04-15T04:25:34.448Z,43.30
2018-04-15T04:26:34.459Z,42.50
2018-04-15T04:27:34.445Z,53.10
2018-04-15T04:28:34.455Z,43.30
2018-04-15T04:29:34.453Z,44.40
2018-04-15T04:30:34.452Z,42.10
2018-04-15T04:31:34.457Z,40.30
2018-04-15T04:32:34.446Z,37.60
2018-04-15T04:33:34.453Z,42.20
2018-04-15T04:34:34.453Z,42.30
2018-04-15T04:35:34.434Z,39.50
2018-04-15T04:36:34.639Z,43.00
2018-04-15T04:37:34.441Z,35.30
2018-04-15T04:38:34.660Z,41.70
2018-04-15T04:39:34.427Z,40.80
2018-04-15T04:40:34.426Z,31.50
2018-04-15T04:41:34.434Z,31.10
2018-04-15T04:42:34.438Z,48.90
2018-04-15T04:43:34.425Z,30.70
2018-04-15T04:44:34.434Z,29.00
2018-04-15T04:45:34.421Z,27.60
2018-04-15T04:46:34.429Z,31.90
2018-04-15T04:47:34.442Z,30.20
2018-04-15T04:48:34.424Z,26.00
2018-04-15T04:49:34.416Z,27.00
2018-04-15T04:50:34.410Z,26.00
2018-04-15T04:51:34.421Z,21.30
2018-04-15T04:52:34.420Z,20.20
2018-04-15T04:53:34.409Z,21.40
2018-04-15T04:54:34.608Z,20.50
2018-04-15T04:55:34.404Z,18.20
2018-04-15T04:56:34.404Z,20.20
2018-04-15T04:57:34.613Z,18.70
2018-04-15T04:58:34.416Z,21.30
2018-04-15T04:59:34.408Z,19.60
2018-04-15T05:00:34.395Z,20.50
2018-04-15T05:01:34.396Z,21.20
2018-04-15T05:02:34.595Z,20.60
2018-04-15T05:03:34.401Z,20.00
2018-04-15T05:04:34.595Z,20.80
2018-04-15T05:05:34.595Z,21.20
2018-04-15T05:06:34.590Z,24.30
2018-04-15T05:07:34.416Z,21.50
2018-04-15T05:08:34.622Z,22.50
2018-04-15T05:09:34.623Z,18.90
2018-04-15T05:10:34.380Z,20.50
2018-04-15T05:11:34.580Z,21.10
2018-04-15T05:12:34.379Z,21.90
2018-04-15T05:13:34.588Z,18.40
2018-04-15T05:14:34.374Z,18.60
2018-04-15T05:15:34.371Z,21.40
2018-04-15T05:16:34.390Z,19.80
2018-04-15T05:17:34.576Z,18.30
2018-04-15T05:18:34.572Z,18.70
2018-04-15T05:19:34.382Z,18.60
2018-04-15T05:20:34.392Z,18.00
2018-04-15T05:21:34.365Z,18.70
2018-04-15T05:22:34.362Z,19.80
2018-04-15T05:23:34.373Z,20.90
2018-04-15T05:24:34.566Z,19.70
2018-04-15T05:25:34.357Z,21.80
2018-04-15T05:26:34.359Z,22.00
2018-04-15T05:27:34.356Z,25.40
2018-04-15T05:28:34.572Z,24.30
2018-04-15T05:29:34.352Z,26.50
2018-04-15T05:30:34.356Z,25.60
2018-04-15T05:31:34.367Z,27.50
2018-04-15T05:32:34.350Z,27.20
2018-04-15T05:33:34.358Z,29.10
2018-04-15T05:34:34.377Z,28.10
2018-04-15T05:35:34.341Z,28.80
2018-04-15T05:36:34.545Z,31.20
2018-04-15T05:37:34.389Z,32.20
2018-04-15T05:38:34.550Z,30.50
2018-04-15T05:39:34.355Z,33.70
2018-04-15T05:40:34.334Z,33.50
2018-04-15T05:41:34.335Z,33.60
2018-04-15T05:42:34.331Z,33.60
2018-04-15T05:43:34.340Z,33.70
2018-04-15T05:44:34.331Z,30.60
2018-04-15T05:45:34.355Z,33.90
2018-04-15T05:46:34.341Z,32.30
2018-04-15T05:47:34.579Z,31.40
2018-04-15T05:48:34.323Z,29.20
2018-04-15T05:49:34.535Z,29.70
2018-04-15T05:50:34.317Z,27.10
2018-04-15T05:51:34.315Z,28.70
2018-04-15T05:52:34.520Z,25.70
2018-04-15T05:53:34.323Z,25.50
2018-04-15T05:54:34.316Z,26.40
2018-04-15T05:55:34.329Z,26.20
2018-04-15T05:56:34.314Z,25.00
2018-04-15T05:57:34.307Z,29.80
2018-04-15T05:58:34.519Z,26.50
2018-04-15T05:59:34.538Z,26.30
2018-04-15T06:00:34.300Z,26.10
2018-04-15T06:01:34.299Z,24.90
2018-04-15T06:02:34.313Z,25.90
2018-04-15T06:03:34.318Z,28.70
2018-04-15T06:04:34.296Z,26.40
2018-04-15T06:05:34.295Z,26.40
2018-04-15T06:06:34.291Z,26.20
2018-04-15T06:07:34.293Z,25.90
2018-04-15T06:08:34.307Z,27.50
2018-04-15T06:09:34.303Z,27.50
2018-04-15T06:10:34.293Z,27.30
2018-04-15T06:11:34.500Z,28.90
2018-04-15T06:12:34.489Z,28.70
2018-04-15T06:13:34.479Z,28.60
2018-04-15T06:14:34.290Z,28.80
2018-04-15T06:15:34.290Z,30.00
2018-04-15T06:16:34.476Z,29.80
2018-04-15T06:17:34.274Z,28.80
2018-04-15T06:18:34.475Z,29.50
2018-04-15T06:19:34.472Z,32.20
2018-04-15T06:20:34.278Z,30.90
2018-04-15T06:21:34.268Z,29.60
2018-04-15T06:22:34.469Z,30.80
2018-04-15T06:23:34.465Z,31.00
2018-04-15T06:24:34.271Z,29.80
2018-04-15T06:25:34.260Z,31.50
2018-04-15T06:26:34.480Z,30.50
2018-04-15T06:27:34.258Z,35.20
2018-04-15T06:28:34.265Z,31.30
2018-04-15T06:29:34.254Z,29.00
2018-04-15T06:30:34.259Z,28.60
2018-04-15T06:31:34.250Z,28.40
2018-04-15T06:32:34.449Z,26.50
2018-04-15T06:33:34.258Z,27.20
2018-04-15T06:34:34.247Z,28.20
2018-04-15T06:35:34.247Z,25.80
2018-04-15T06:36:34.463Z,26.70
2018-04-15T06:37:34.439Z,24.80
2018-04-15T06:38:34.247Z,25.00
2018-04-15T06:39:34.247Z,26.10
2018-04-15T06:40:34.463Z,23.20
2018-04-15T06:41:34.447Z,22.90
2018-04-15T06:42:34.230Z,23.20
2018-04-15T06:43:34.437Z,27.10
2018-04-15T06:44:34.236Z,20.80
2018-04-15T06:45:34.428Z,22.30
2018-04-15T06:46:34.225Z,20.40
2018-04-15T06:47:34.222Z,20.20
2018-04-15T06:48:34.437Z,20.30
2018-04-15T06:49:34.216Z,21.00
2018-04-15T06:50:34.221Z,20.50
2018-04-15T06:51:34.212Z,20.90
2018-04-15T06:52:34.216Z,20.30
2018-04-15T06:53:34.224Z,19.50
2018-04-15T06:54:34.208Z,20.30
2018-04-15T06:55:34.208Z,19.10
2018-04-15T06:56:34.228Z,19.80
2018-04-15T06:57:34.205Z,20.10
2018-04-15T06:58:34.203Z,20.60
2018-04-15T06:59:34.405Z,21.70
2018-04-15T07:00:34.205Z,18.20
2018-04-15T07:01:34.209Z,19.10
2018-04-15T07:02:34.402Z,17.40
2018-04-15T07:03:34.208Z,18.00
2018-04-15T07:04:34.207Z,19.50
2018-04-15T07:05:34.200Z,19.00
2018-04-15T07:06:34.406Z,18.80
2018-04-15T07:07:34.204Z,18.60
2018-04-15T07:08:34.189Z,19.70
2018-04-15T07:09:34.232Z,19.90
2018-04-15T07:10:34.184Z,18.50
2018-04-15T07:11:34.195Z,18.90
2018-04-15T07:12:34.183Z,18.20
2018-04-15T07:13:34.196Z,17.60
2018-04-15T07:14:34.187Z,15.10
2018-04-15T07:15:34.189Z,15.70
2018-04-15T07:16:34.194Z,16.40
2018-04-15T07:17:34.188Z,17.20
2018-04-15T07:18:34.176Z,17.30
2018-04-15T07:19:34.213Z,18.10
2018-04-15T07:20:34.170Z,16.50
2018-04-15T07:21:34.199Z,16.40
2018-04-15T07:22:34.195Z,15.90
2018-04-15T07:23:34.174Z,17.80
2018-04-15T07:24:34.174Z,16.80
2018-04-15T07:25:34.378Z,15.20
2018-04-15T07:26:34.164Z,16.20
2018-04-15T07:27:34.160Z,16.00
2018-04-15T07:28:34.172Z,15.30
2018-04-15T07:29:34.160Z,15.30
2018-04-15T07:30:34.154Z,16.30
2018-04-15T07:31:34.166Z,16.40
2018-04-15T07:32:34.169Z,16.60
2018-04-15T07:33:34.177Z,16.60
2018-04-15T07:34:34.353Z,16.90
2018-04-15T07:35:34.168Z,18.30
2018-04-15T07:36:34.230Z,17.20
2018-04-15T07:37:34.148Z,16.10
2018-04-15T07:38:34.163Z,16.50
2018-04-15T07:39:34.146Z,17.80
2018-04-15T07:40:34.162Z,17.40
2018-04-15T07:41:34.158Z,18.60
2018-04-15T07:42:34.342Z,18.00
2018-04-15T07:43:34.137Z,18.10
2018-04-15T07:44:34.350Z,18.20
2018-04-15T07:45:34.162Z,19.80
2018-04-15T07:46:34.136Z,17.40
2018-04-15T07:47:34.136Z,16.60
2018-04-15T07:48:34.145Z,16.30
2018-04-15T07:49:34.333Z,17.70
2018-04-15T07:50:34.193Z,18.10
2018-04-15T07:51:34.129Z,18.60
2018-04-15T07:52:34.142Z,20.90
2018-04-15T07:53:34.137Z,23.70
2018-04-15T07:54:34.152Z,20.30
2018-04-15T07:55:34.133Z,18.80
2018-04-15T07:56:34.325Z,18.80
2018-04-15T07:57:34.126Z,20.60
2018-04-15T07:58:34.139Z,22.90
2018-04-15T07:59:34.118Z,22.10
2018-04-15T08:00:34.137Z,23.50
2018-04-15T08:01:34.118Z,26.50
2018-04-15T08:02:34.124Z,27.60
2018-04-15T08:03:34.141Z,24.50
2018-04-15T08:04:34.318Z,22.50
2018-04-15T08:05:34.118Z,22.10
2018-04-15T08:06:34.328Z,17.60
2018-04-15T08:07:34.115Z,15.00
2018-04-15T08:08:34.115Z,15.90
2018-04-15T08:09:34.122Z,16.20
2018-04-15T08:10:34.330Z,11.70
2018-04-15T08:11:34.111Z,11.50
2018-04-15T08:12:34.332Z,11.00
2018-04-15T08:13:34.111Z,11.10
2018-04-15T08:14:34.112Z,11.90
2018-04-15T08:15:34.316Z,11.50
2018-04-15T08:16:34.114Z,10.20
2018-04-15T08:17:34.112Z,9.50
2018-04-15T08:18:34.140Z,11.40
2018-04-15T08:19:34.330Z,10.30
2018-04-15T08:20:34.113Z,9.40
2018-04-15T08:21:34.129Z,10.20
2018-04-15T08:22:34.314Z,8.70
2018-04-15T08:23:34.172Z,9.00
2018-04-15T08:24:34.117Z,10.00
2018-04-15T08:25:34.127Z,8.90
2018-04-15T08:26:34.337Z,6.80
2018-04-15T08:27:34.124Z,6.10
2018-04-15T08:28:34.319Z,5.80
2018-04-15T08:29:34.119Z,6.30
2018-04-15T08:30:34.126Z,5.30
2018-04-15T08:31:34.116Z,4.70
2018-04-15T08:32:34.120Z,5.10
2018-04-15T08:33:34.327Z,4.30
2018-04-15T08:34:34.125Z,3.20
2018-04-15T08:35:34.126Z,3.80
2018-04-15T08:36:34.339Z,3.00
2018-04-15T08:37:34.333Z,3.50
2018-04-15T08:38:34.332Z,3.00
2018-04-15T08:39:34.141Z,3.30
2018-04-15T08:40:34.133Z,3.10
2018-04-15T08:41:34.132Z,3.40
2018-04-15T08:42:34.132Z,3.70
2018-04-15T08:43:34.150Z,3.70
2018-04-15T08:44:34.338Z,3.20
2018-04-15T08:45:34.140Z,2.70
2018-04-15T08:46:34.138Z,2.40
2018-04-15T08:47:34.138Z,2.80
2018-04-15T08:48:34.141Z,2.00
2018-04-15T08:49:34.143Z,2.20
2018-04-15T08:50:34.141Z,2.10
2018-04-15T08:51:34.147Z,2.90
2018-04-15T08:52:34.144Z,2.10
2018-04-15T08:53:34.143Z,2.90
2018-04-15T08:54:34.162Z,2.60
2018-04-15T08:55:34.168Z,2.40
2018-04-15T08:56:34.149Z,1.80
2018-04-15T08:57:34.165Z,1.60
2018-04-15T08:58:34.373Z,1.50
2018-04-15T08:59:34.157Z,1.30
2018-04-15T09:00:34.191Z,2.80
2018-04-15T09:01:34.148Z,2.20
2018-04-15T09:02:34.147Z,2.50
2018-04-15T09:03:34.157Z,1.90
2018-04-15T09:04:34.154Z,2.10
2018-04-15T09:05:34.364Z,1.70
2018-04-15T09:06:34.168Z,2.50
2018-04-15T09:07:34.164Z,1.60
2018-04-15T09:08:34.156Z,2.80
2018-04-15T09:09:34.371Z,2.70
2018-04-15T09:10:34.370Z,1.60
2018-04-15T09:11:34.154Z,1.80
2018-04-15T09:12:34.154Z,1.80
2018-04-15T09:13:34.369Z,2.00
2018-04-15T09:14:34.168Z,2.30
2018-04-15T09:15:34.162Z,2.30
2018-04-15T09:16:34.182Z,3.50
2018-04-15T09:17:34.153Z,2.90
2018-04-15T09:18:34.157Z,2.80
2018-04-15T09:19:34.158Z,2.00
2018-04-15T09:20:34.165Z,2.60
2018-04-15T09:21:34.359Z,1.70
2018-04-15T09:22:34.170Z,1.70
2018-04-15T09:23:34.358Z,2.20
2018-04-15T09:24:34.156Z,1.80
2018-04-15T09:25:34.157Z,2.40
2018-04-15T09:26:34.154Z,3.30
2018-04-15T09:27:34.174Z,2.00
2018-04-15T09:28:34.169Z,1.80
2018-04-15T09:29:34.190Z,2.30
2018-04-15T09:30:34.373Z,2.70
2018-04-15T09:31:34.155Z,2.20
2018-04-15T09:32:34.156Z,2.00
2018-04-15T09:33:34.372Z,2.60
2018-04-15T09:34:34.155Z,2.40
2018-04-15T09:35:34.186Z,2.30
2018-04-15T09:36:34.168Z,2.40
2018-04-15T09:37:34.159Z,2.60
2018-04-15T09:38:34.155Z,2.50
2018-04-15T09:39:34.156Z,2.60
2018-04-15T09:40:34.156Z,2.50
2018-04-15T09:41:34.156Z,2.40
2018-04-15T09:42:34.168Z,3.00
2018-04-15T09:43:34.176Z,3.80
2018-04-15T09:44:34.170Z,3.90
2018-04-15T09:45:34.154Z,3.50
2018-04-15T09:46:34.355Z,3.60
2018-04-15T09:47:34.156Z,2.70
2018-04-15T09:48:34.156Z,3.50
2018-04-15T09:49:34.153Z,3.60
2018-04-15T09:50:34.152Z,3.90
2018-04-15T09:51:34.154Z,3.10
2018-04-15T09:52:34.218Z,3.70
2018-04-15T09:53:34.153Z,3.50
2018-04-15T09:54:34.160Z,3.20
2018-04-15T09:55:34.155Z,3.30
2018-04-15T09:56:34.152Z,3.50
2018-04-15T09:57:34.166Z,3.90
2018-04-15T09:58:34.154Z,4.30
2018-04-15T09:59:34.163Z,3.30
2018-04-15T10:00:34.159Z,3.50
2018-04-15T10:01:34.357Z,3.40
2018-04-15T10:02:34.151Z,4.20
2018-04-15T10:03:34.367Z,3.40
2018-04-15T10:04:34.364Z,4.30
2018-04-15T10:05:34.358Z,4.00
2018-04-15T10:06:34.163Z,3.90
2018-04-15T10:07:34.161Z,4.20
2018-04-15T10:08:34.175Z,3.80
2018-04-15T10:09:34.160Z,3.40
2018-04-15T10:10:34.375Z,4.80
2018-04-15T10:11:34.151Z,4.50
2018-04-15T10:12:34.149Z,4.50
2018-04-15T10:13:34.171Z,4.10
2018-04-15T10:14:34.146Z,3.90
2018-04-15T10:15:34.147Z,3.80
2018-04-15T10:16:34.370Z,4.50
2018-04-15T10:17:34.160Z,4.10
2018-04-15T10:18:34.146Z,4.20
2018-04-15T10:19:34.146Z,3.70
2018-04-15T10:20:34.363Z,4.20
2018-04-15T10:21:34.350Z,4.00
2018-04-15T10:22:34.156Z,3.90
2018-04-15T10:23:34.147Z,3.70
2018-04-15T10:24:34.149Z,4.30
2018-04-15T10:25:34.150Z,3.90
2018-04-15T10:26:34.141Z,3.80
2018-04-15T10:27:34.349Z,4.10
2018-04-15T10:28:34.145Z,4.40
2018-04-15T10:29:34.348Z,4.70
2018-04-15T10:30:34.142Z,4.70
2018-04-15T10:31:34.145Z,3.80
2018-04-15T10:32:34.154Z,3.40
2018-04-15T10:33:34.151Z,3.70
2018-04-15T10:34:34.144Z,4.10
2018-04-15T10:35:34.144Z,4.10
2018-04-15T10:36:34.160Z,4.00
2018-04-15T10:37:34.143Z,4.20
2018-04-15T10:38:34.153Z,3.80
2018-04-15T10:39:34.142Z,3.40
2018-04-15T10:40:34.139Z,3.30
2018-04-15T10:41:34.140Z,3.10
2018-04-15T10:42:34.146Z,2.80
2018-04-15T10:43:34.143Z,2.90
2018-04-15T10:44:34.144Z,3.10
2018-04-15T10:45:34.346Z,3.20
2018-04-15T10:46:34.160Z,3.00
2018-04-15T10:47:34.149Z,2.60
2018-04-15T10:48:34.142Z,4.20
2018-04-15T10:49:34.145Z,3.10
2018-04-15T10:50:34.159Z,3.00
2018-04-15T10:51:34.139Z,2.90
2018-04-15T10:52:34.344Z,2.60
2018-04-15T10:53:34.156Z,2.70
2018-04-15T10:54:34.178Z,3.20
2018-04-15T10:55:34.140Z,3.00
2018-04-15T10:56:34.149Z,3.00
2018-04-15T10:57:34.154Z,2.60
2018-04-15T10:58:34.183Z,2.60
2018-04-15T10:59:34.148Z,2.70
2018-04-15T11:00:34.141Z,2.60
2018-04-15T11:01:34.140Z,2.30
2018-04-15T11:02:34.140Z,2.80
2018-04-15T11:03:34.138Z,2.60
2018-04-15T11:04:34.340Z,2.30
2018-04-15T11:05:34.155Z,2.20
2018-04-15T11:06:34.155Z,2.60
2018-04-15T11:07:34.168Z,2.20
2018-04-15T11:08:34.156Z,4.40
2018-04-15T11:09:34.150Z,2.30
2018-04-15T11:10:34.138Z,3.10
2018-04-15T11:11:34.155Z,2.20
2018-04-15T11:12:34.155Z,2.00
2018-04-15T11:13:34.140Z,3.30
2018-04-15T11:14:34.154Z,2.20
2018-04-15T11:15:34.151Z,2.30
2018-04-15T11:16:34.357Z,2.20
2018-04-15T11:17:34.146Z,5.00
2018-04-15T11:18:34.142Z,2.30
2018-04-15T11:19:34.137Z,2.40
2018-04-15T11:20:34.140Z,2.40
2018-04-15T11:21:34.138Z,2.00
2018-04-15T11:22:34.151Z,3.70
2018-04-15T11:23:34.138Z,2.90
2018-04-15T11:24:34.354Z,9.70
2018-04-15T11:25:34.140Z,2.10
2018-04-15T11:26:34.150Z,6.60
2018-04-15T11:27:34.153Z,1.80
2018-04-15T11:28:34.135Z,2.30
2018-04-15T11:29:34.139Z,2.60
2018-04-15T11:30:34.137Z,3.50
2018-04-15T11:31:34.143Z,2.70
2018-04-15T11:32:34.166Z,2.40
2018-04-15T11:33:34.147Z,2.30
2018-04-15T11:34:34.147Z,2.30
2018-04-15T11:35:34.137Z,2.10
2018-04-15T11:36:34.137Z,1.70
2018-04-15T11:37:34.341Z,1.70
2018-04-15T11:38:34.150Z,1.50
2018-04-15T11:39:34.135Z,3.80
2018-04-15T11:40:34.139Z,1.80
2018-04-15T11:41:34.140Z,1.50
2018-04-15T11:42:34.136Z,1.80
2018-04-15T11:43:34.136Z,2.40
2018-04-15T11:44:34.148Z,2.30
2018-04-15T11:45:34.137Z,2.60
2018-04-15T11:46:34.165Z,2.20
2018-04-15T11:47:34.162Z,1.80
2018-04-15T11:48:34.148Z,3.80
2018-04-15T11:49:34.166Z,2.00
2018-04-15T11:50:34.136Z,1.40
2018-04-15T11:51:34.162Z,1.30
2018-04-15T11:52:34.138Z,2.10
2018-04-15T11:53:34.138Z,2.00
2018-04-15T11:54:34.138Z,1.60
2018-04-15T11:55:34.169Z,1.40
2018-04-15T11:56:34.138Z,3.40
2018-04-15T11:57:34.155Z,1.50
2018-04-15T11:58:34.195Z,2.20
2018-04-15T11:59:34.149Z,3.70
2018-04-15T12:00:34.164Z,2.60
2018-04-15T12:01:34.140Z,1.20
2018-04-15T12:02:34.148Z,1.50
2018-04-15T12:03:34.137Z,1.30
2018-04-15T12:04:34.139Z,1.90
2018-04-15T12:05:34.342Z,1.50
2018-04-15T12:06:34.365Z,1.60
2018-04-15T12:07:34.149Z,2.20
2018-04-15T12:08:34.138Z,2.40
2018-04-15T12:09:34.168Z,3.00
2018-04-15T12:10:34.139Z,2.20
2018-04-15T12:11:34.152Z,2.30
2018-04-15T12:12:34.153Z,1.70
2018-04-15T12:13:34.154Z,1.50
2018-04-15T12:14:34.141Z,2.50
2018-04-15T12:15:34.140Z,1.40
2018-04-15T12:16:34.155Z,3.20
2018-04-15T12:17:34.144Z,3.80
2018-04-15T12:18:34.140Z,1.40
2018-04-15T12:19:34.143Z,1.90
2018-04-15T12:20:34.139Z,1.30
2018-04-15T12:21:34.157Z,1.80
2018-04-15T12:22:34.143Z,1.60
2018-04-15T12:23:34.155Z,2.60
2018-04-15T12:24:34.146Z,2.10
2018-04-15T12:25:34.151Z,2.00
2018-04-15T12:26:34.155Z,2.30
2018-04-15T12:27:34.141Z,1.40
2018-04-15T12:28:34.155Z,1.30
2018-04-15T12:29:34.143Z,1.40
2018-04-15T12:30:34.158Z,2.10
2018-04-15T12:31:34.146Z,3.80
2018-04-15T12:32:34.145Z,3.00
2018-04-15T12:33:34.143Z,1.30
2018-04-15T12:34:34.159Z,2.20
2018-04-15T12:35:34.147Z,1.20
2018-04-15T12:36:34.143Z,2.40
2018-04-15T12:37:34.160Z,2.90
2018-04-15T12:38:34.154Z,1.60
2018-04-15T12:39:34.145Z,1.30
2018-04-15T12:40:34.144Z,2.50
2018-04-15T12:41:34.149Z,4.30
2018-04-15T12:42:34.144Z,1.40
2018-04-15T12:43:34.159Z,1.60
2018-04-15T12:44:34.146Z,2.90
2018-04-15T12:45:34.146Z,1.60
2018-04-15T12:46:34.148Z,1.20
2018-04-15T12:47:34.150Z,1.50
2018-04-15T12:48:34.152Z,1.70
2018-04-15T12:49:34.146Z,1.30
2018-04-15T12:50:34.147Z,2.40
2018-04-15T12:51:34.150Z,1.30
2018-04-15T12:52:34.145Z,1.20
2018-04-15T12:53:34.162Z,1.20
2018-04-15T12:54:34.149Z,1.00
2018-04-15T12:55:34.150Z,1.10
2018-04-15T12:56:34.152Z,1.80
2018-04-15T12:57:34.151Z,1.30
2018-04-15T12:58:34.160Z,1.30
2018-04-15T12:59:34.381Z,1.40
2018-04-15T13:00:34.149Z,1.80
2018-04-15T13:01:34.182Z,1.50